Time;durP1;ratioP1;P1;durP2;ratioP2;P2;SDS_P1;SDS_P2;PMS_P1;PMS_P2;Temp;Humidity;BMP_temperature;BMP_pressure;BME280_temperature;BME280_humidity;BME280_pressure;Samples;Min_cycle;Max_cycle;Signal;HPM_P1;HPM_P2
2022/10/27 00:00:47;;;;;;;8.57;6.17;;;;;;;13.93;98.07;99480.25;5038869;27;104188;-73
2022/10/27 00:03:17;;;;;;;14.07;6.20;;;;;;;13.96;96.91;99469.41;5041049;27;103802;-73
2022/10/27 00:05:47;;;;;;;11.20;6.20;;;;;;;13.81;97.80;99475.88;5042880;27;103160;-75
2022/10/27 00:08:17;;;;;;;8.03;5.20;;;;;;;13.89;98.44;99478.81;5044296;27;102790;-73
2022/10/27 00:10:45;;;;;;;10.83;6.30;;;;;;;13.84;98.30;99478.25;5037429;27;104185;-73
2022/10/27 00:13:14;;;;;;;10.73;6.77;;;;;;;13.61;99.84;99476.47;5035217;27;104802;-72
2022/10/27 00:15:42;;;;;;;13.80;7.60;;;;;;;13.57;99.88;99477.63;5033315;27;103186;-73
2022/10/27 00:18:12;;;;;;;7.67;5.43;;;;;;;13.77;99.63;99477.88;5041949;27;102906;-72
2022/10/27 00:20:42;;;;;;;11.43;6.53;;;;;;;13.79;98.13;99477.75;5033231;27;104080;-72
2022/10/27 00:23:09;;;;;;;12.70;8.77;;;;;;;13.58;98.01;99477.53;5035301;27;104121;-73
2022/10/27 00:25:37;;;;;;;11.53;6.77;;;;;;;13.58;99.55;99477.53;5037755;27;105917;-73
2022/10/27 00:28:05;;;;;;;12.73;7.90;;;;;;;13.54;99.49;99480.50;5040537;27;102727;-72
2022/10/27 00:30:32;;;;;;;11.90;7.00;;;;;;;13.42;99.44;99481.41;5039943;27;103136;-73
2022/10/27 00:33:00;;;;;;;14.37;8.37;;;;;;;13.25;100.00;99483.44;5041323;27;105481;-72
2022/10/27 00:35:28;;;;;;;11.53;6.97;;;;;;;13.54;99.67;99488.47;5038318;27;104281;-72
2022/10/27 00:37:57;;;;;;;9.77;6.17;;;;;;;13.76;98.25;99484.16;5037258;27;102687;-72
2022/10/27 00:40:24;;;;;;;6.43;5.60;;;;;;;13.81;96.58;99489.16;5035163;27;103948;-72
2022/10/27 00:42:52;;;;;;;9.53;5.13;;;;;;;13.67;94.94;99494.59;5036495;27;103715;-72
2022/10/27 00:45:21;;;;;;;7.57;4.93;;;;;;;13.78;95.04;99495.50;5036689;27;103188;-72
2022/10/27 00:47:49;;;;;;;6.03;4.90;;;;;;;13.82;93.83;99499.63;5038923;27;103419;-73
2022/10/27 00:50:21;;;;;;;6.20;3.73;;;;;;;13.82;92.68;99506.75;5040382;27;102724;-73
2022/10/27 00:52:51;;;;;;;5.27;3.93;;;;;;;13.77;91.67;99501.78;5033719;27;103470;-72
2022/10/27 00:55:25;;;;;;;8.13;3.87;;;;;;;13.82;91.54;99498.78;5039235;27;103292;-72
2022/10/27 00:57:58;;;;;;;8.43;5.23;;;;;;;13.71;90.54;99493.41;5040778;27;103396;-73
2022/10/27 01:00:26;;;;;;;10.30;6.13;;;;;;;13.52;89.92;99496.56;5041071;27;102739;-73
2022/10/27 01:02:54;;;;;;;10.00;5.50;;;;;;;13.26;92.37;99495.75;5032061;27;103310;-73
2022/10/27 01:05:27;;;;;;;7.60;4.63;;;;;;;13.36;92.52;99507.41;5033943;27;103287;-73
2022/10/27 01:07:59;;;;;;;7.53;4.27;;;;;;;13.33;92.65;99507.63;5039858;27;102710;-73
2022/10/27 01:10:29;;;;;;;6.70;4.80;;;;;;;13.39;92.17;99503.69;5046068;27;103644;-73
2022/10/27 01:12:58;;;;;;;10.07;5.97;;;;;;;13.32;93.12;99494.47;5044537;27;104025;-73
2022/10/27 01:15:35;;;;;;;9.27;6.17;;;;;;;13.25;93.16;99501.16;5033471;27;103287;-73
2022/10/27 01:18:15;;;;;;;8.23;6.33;;;;;;;13.24;94.00;99497.66;5038312;27;102718;-73
2022/10/27 01:21:26;;;;;;;11.97;5.87;;;;;;;13.38;94.44;99501.16;5033746;27;103611;-74
2022/10/27 01:24:17;;;;;;;16.77;6.30;;;;;;;13.42;93.91;99494.69;5036613;27;103601;-73
2022/10/27 01:26:50;;;;;;;13.25;8.77;;;;;;;13.26;94.65;99492.25;5032423;27;103229;-74
2022/10/27 01:29:34;;;;;;;14.63;6.87;;;;;;;12.86;98.04;99491.50;5033240;27;103059;-73
2022/10/27 01:32:16;;;;;;;20.07;7.67;;;;;;;12.76;100.00;99488.66;5031082;27;102973;-72
2022/10/27 01:34:47;;;;;;;15.17;8.27;;;;;;;12.85;99.55;99489.81;5037427;27;103467;-72
2022/10/27 01:37:21;;;;;;;14.43;7.20;;;;;;;12.80;100.00;99481.31;5038542;27;103274;-73
2022/10/27 01:39:57;;;;;;;12.93;7.80;;;;;;;12.83;100.00;99483.75;5032489;27;102617;-72
2022/10/27 01:42:29;;;;;;;8.73;5.60;;;;;;;13.15;99.99;99487.69;5034449;27;104198;-72
2022/10/27 01:44:59;;;;;;;8.63;5.80;;;;;;;13.35;98.29;99488.94;5029839;27;103834;-72
2022/10/27 01:47:29;;;;;;;5.40;4.60;;;;;;;13.23;95.79;99490.66;5032801;27;103201;-72
2022/10/27 01:49:57;;;;;;;9.60;6.03;;;;;;;13.20;94.15;99490.03;5030618;27;102565;-73
2022/10/27 01:52:44;;;;;;;5.67;4.07;;;;;;;13.26;93.51;99502.84;5034300;27;102691;-72
2022/10/27 01:55:29;;;;;;;12.03;6.43;;;;;;;12.72;91.58;99494.25;5037809;27;103399;-73
2022/10/27 01:58:27;;;;;;;5.13;4.03;;;;;;;13.01;92.84;99490.44;5039132;27;103222;-72
2022/10/27 02:01:12;;;;;;;6.93;4.93;;;;;;;12.87;92.26;99487.91;5033039;27;102692;-72
2022/10/27 02:03:50;;;;;;;6.47;4.70;;;;;;;12.92;92.42;99480.47;5035601;27;102601;-72
2022/10/27 02:06:24;;;;;;;7.47;4.73;;;;;;;13.07;92.27;99479.44;5037371;27;103043;-73
2022/10/27 02:08:55;;;;;;;7.23;5.33;;;;;;;13.03;90.95;99482.34;5036860;27;104339;-72
2022/10/27 02:11:27;;;;;;;10.97;6.70;;;;;;;12.81;89.62;99483.00;5040613;27;102660;-73
2022/10/27 02:13:57;;;;;;;9.43;6.10;;;;;;;12.15;96.04;99476.00;5041680;27;103784;-72
2022/10/27 02:16:29;;;;;;;12.43;6.87;;;;;;;12.20;100.00;99481.88;5033177;27;103758;-72
2022/10/27 02:19:03;;;;;;;12.57;7.20;;;;;;;12.60;100.00;99480.03;5040307;27;104587;-72
2022/10/27 02:21:34;;;;;;;8.53;5.60;;;;;;;12.91;100.00;99477.94;5057781;27;103393;-72
2022/10/27 02:24:02;;;;;;;9.77;6.67;;;;;;;12.91;99.41;99477.94;5044524;27;103550;-72
2022/10/27 02:26:35;;;;;;;10.07;6.87;;;;;;;12.69;99.48;99481.19;5044372;27;104572;-72
2022/10/27 02:29:07;;;;;;;7.17;4.80;;;;;;;13.00;98.73;99486.06;5046606;27;103157;-72
2022/10/27 02:31:39;;;;;;;10.17;6.27;;;;;;;13.09;97.52;99492.56;5045085;27;102723;-72
2022/10/27 02:34:10;;;;;;;8.10;4.97;;;;;;;12.87;99.16;99484.38;5041854;27;102845;-72
2022/10/27 02:36:38;;;;;;;16.03;7.90;;;;;;;12.75;98.62;99489.59;5040360;27;104044;-72
2022/10/27 02:39:06;;;;;;;9.17;6.67;;;;;;;13.05;97.90;99486.59;5047778;27;103238;-72
2022/10/27 02:41:34;;;;;;;6.37;5.00;;;;;;;13.08;96.42;99491.72;5043974;27;102794;-72
2022/10/27 02:44:01;;;;;;;8.20;6.13;;;;;;;13.39;94.21;99489.59;5041842;27;104283;-73
2022/10/27 02:46:29;;;;;;;7.47;5.95;;;;;;;13.54;93.08;99488.47;5041342;27;104344;-72
2022/10/27 02:48:57;;;;;;;14.98;7.80;;;;;;;13.60;91.52;99475.59;5037143;27;103117;-69
2022/10/27 02:51:26;;;;;;;12.47;7.03;;;;;;;13.58;91.04;99484.66;5057405;27;105324;-70
2022/10/27 02:53:54;;;;;;;12.80;7.93;;;;;;;13.74;92.17;99486.06;5039233;27;103992;-70
2022/10/27 02:56:22;;;;;;;14.53;8.13;;;;;;;13.69;91.22;99482.06;5043650;27;103290;-70
2022/10/27 02:58:50;;;;;;;9.77;7.57;;;;;;;13.73;92.58;99494.13;5040288;27;103324;-69
2022/10/27 03:01:17;;;;;;;9.32;7.18;;;;;;;13.95;90.40;99483.63;5036467;27;102799;-69
2022/10/27 03:03:45;;;;;;;9.48;6.53;;;;;;;14.04;90.38;99482.09;5038214;27;102856;-70
2022/10/27 03:06:13;;;;;;;14.60;7.57;;;;;;;14.09;89.83;99483.47;5040072;27;103463;-73
2022/10/27 03:08:42;;;;;;;12.32;8.00;;;;;;;13.71;91.19;99483.63;5037847;27;103264;-70
2022/10/27 03:11:10;;;;;;;10.10;7.30;;;;;;;13.84;92.08;99481.78;5039005;27;102987;-72
2022/10/27 03:13:39;;;;;;;12.32;7.93;;;;;;;13.76;93.18;99488.59;5040133;27;102921;-72
2022/10/27 03:16:07;;;;;;;10.27;7.13;;;;;;;14.19;90.79;99481.84;5035121;27;103442;-73
2022/10/27 03:18:35;;;;;;;10.85;7.90;;;;;;;14.04;89.74;99480.31;5042016;27;103402;-70
2022/10/27 03:21:03;;;;;;;8.13;6.40;;;;;;;14.38;89.30;99481.31;5050503;27;104344;-69
2022/10/27 03:23:31;;;;;;;8.63;6.25;;;;;;;14.53;88.22;99485.50;5039096;27;102833;-69
2022/10/27 03:26:00;;;;;;;6.60;5.78;;;;;;;14.61;87.69;99482.22;5037400;27;103104;-69
2022/10/27 03:28:29;;;;;;;9.13;6.20;;;;;;;14.67;86.67;99481.78;5033842;27;103291;-69
2022/10/27 03:30:56;;;;;;;8.50;7.00;;;;;;;14.42;87.31;99481.00;5038226;27;103157;-69
2022/10/27 03:33:24;;;;;;;9.50;6.53;;;;;;;14.48;87.23;99477.03;5035084;27;102941;-69
2022/10/27 03:35:52;;;;;;;10.48;6.97;;;;;;;14.59;86.91;99477.03;5036743;27;103332;-68
2022/10/27 03:38:20;;;;;;;10.13;7.17;;;;;;;14.62;86.68;99481.28;5034223;27;103225;-69
2022/10/27 03:40:47;;;;;;;12.02;7.50;;;;;;;14.49;85.94;99479.53;5032056;27;103353;-69
2022/10/27 03:43:16;;;;;;;8.98;7.30;;;;;;;14.36;87.25;99480.59;5036768;27;102784;-70
2022/10/27 03:45:48;;;;;;;10.32;7.55;;;;;;;14.54;86.18;99473.03;5034053;27;103155;-69
2022/10/27 03:48:16;;;;;;;9.20;6.50;;;;;;;14.63;86.01;99475.84;5040614;27;103224;-70
2022/10/27 03:50:46;;;;;;;8.73;6.68;;;;;;;14.71;85.64;99484.06;5038255;27;103042;-69
2022/10/27 03:53:15;;;;;;;9.57;6.65;;;;;;;14.47;86.25;99476.16;5050671;27;104190;-69
2022/10/27 03:55:43;;;;;;;11.48;7.25;;;;;;;14.41;87.08;99473.97;5041856;27;104973;-69
2022/10/27 03:58:12;;;;;;;9.90;7.07;;;;;;;14.52;86.39;99471.34;5037620;27;103234;-69
2022/10/27 04:00:45;;;;;;;12.25;8.35;;;;;;;13.95;88.68;99473.88;5039195;27;102891;-69
2022/10/27 04:03:14;;;;;;;8.90;6.78;;;;;;;14.28;88.09;99483.81;5041859;27;102779;-69
2022/10/27 04:05:42;;;;;;;11.95;7.10;;;;;;;14.45;86.43;99487.88;5039796;27;103348;-69
2022/10/27 04:08:09;;;;;;;7.72;6.78;;;;;;;14.57;86.66;99483.44;5038897;27;104183;-69
2022/10/27 04:10:37;;;;;;;8.87;6.77;;;;;;;14.48;85.93;99480.50;5037982;27;104179;-69
2022/10/27 04:13:05;;;;;;;11.70;8.25;;;;;;;13.88;87.24;99482.41;5036399;27;105446;-69
2022/10/27 04:15:32;;;;;;;9.57;6.15;;;;;;;14.39;86.85;99483.88;5034245;27;103820;-68
2022/10/27 04:18:02;;;;;;;7.93;5.78;;;;;;;14.45;84.72;99491.41;5035803;27;103294;-69
2022/10/27 04:20:30;;;;;;;6.22;5.63;;;;;;;14.58;84.76;99485.97;5038583;27;102766;-69
2022/10/27 04:22:59;;;;;;;13.10;7.78;;;;;;;14.11;85.98;99486.88;5042409;27;102791;-69
2022/10/27 04:25:27;;;;;;;12.43;7.53;;;;;;;13.71;86.90;99493.41;5040329;27;104416;-69
2022/10/27 04:28:01;;;;;;;10.93;8.75;;;;;;;12.96;91.81;99492.56;5030494;27;103308;-69
2022/10/27 04:30:31;;;;;;;12.02;8.35;;;;;;;13.32;90.80;99492.66;5036037;27;103266;-69
2022/10/27 04:32:59;;;;;;;16.02;9.15;;;;;;;13.12;92.71;99490.56;5042813;27;104019;-69
2022/10/27 04:35:29;;;;;;;13.23;8.97;;;;;;;13.09;93.12;99492.56;5040346;27;103282;-69
2022/10/27 04:37:59;;;;;;;12.97;8.27;;;;;;;13.35;92.29;99495.09;5048294;27;104158;-70
2022/10/27 04:40:27;;;;;;;10.07;7.07;;;;;;;13.89;90.43;99486.78;5037857;27;102707;-70
2022/10/27 04:42:55;;;;;;;12.68;8.00;;;;;;;13.63;90.49;99490.47;5035095;27;103069;-70
2022/10/27 04:45:23;;;;;;;10.55;7.68;;;;;;;13.84;90.03;99496.84;5032955;27;104085;-70
2022/10/27 04:47:51;;;;;;;10.88;7.65;;;;;;;13.98;88.53;99498.53;5028738;27;104048;-70
2022/10/27 04:50:21;;;;;;;7.10;5.60;;;;;;;14.25;88.13;99507.09;5034499;27;102615;-69
2022/10/27 04:52:56;;;;;;;13.27;8.17;;;;;;;14.01;86.34;99498.31;5030100;27;103026;-70
2022/10/27 04:55:27;;;;;;;9.90;6.85;;;;;;;14.09;86.71;99496.75;5034639;27;103291;-69
2022/10/27 04:57:55;;;;;;;9.43;7.18;;;;;;;14.07;86.49;99497.81;5039661;27;103481;-70
2022/10/27 05:00:24;;;;;;;8.45;5.85;;;;;;;14.37;85.80;99501.72;5046233;27;102780;-70
2022/10/27 05:02:53;;;;;;;9.63;6.43;;;;;;;14.33;85.06;99500.28;5034863;27;103059;-70
2022/10/27 05:05:23;;;;;;;8.63;5.70;;;;;;;14.46;84.67;99495.72;5045861;27;103266;-70
2022/10/27 05:07:52;;;;;;;7.18;5.20;;;;;;;14.58;84.27;99493.09;5036674;27;103305;-70
2022/10/27 05:10:22;;;;;;;7.73;5.97;;;;;;;14.61;83.61;99488.41;5036455;27;103031;-70
2022/10/27 05:12:50;;;;;;;7.18;5.65;;;;;;;14.63;83.34;99490.94;5037143;27;102656;-70
2022/10/27 05:15:19;;;;;;;8.52;6.78;;;;;;;14.57;83.17;99492.25;5028352;27;103256;-70
2022/10/27 05:17:47;;;;;;;8.57;6.88;;;;;;;14.57;82.96;99492.25;5028482;27;103409;-69
2022/10/27 05:20:16;;;;;;;7.57;6.03;;;;;;;14.63;83.39;99486.47;5030981;27;103588;-70
2022/10/27 05:22:44;;;;;;;7.65;6.50;;;;;;;14.56;83.28;99489.72;5029820;27;102877;-70
2022/10/27 05:25:12;;;;;;;9.25;6.72;;;;;;;14.49;83.61;99478.69;5031368;27;104227;-69
2022/10/27 05:27:41;;;;;;;10.40;7.20;;;;;;;14.44;83.92;99479.06;5029685;27;103238;-69
2022/10/27 05:30:11;;;;;;;10.73;6.83;;;;;;;14.47;83.74;99484.16;5035128;27;102947;-69
2022/10/27 05:32:39;;;;;;;11.65;7.57;;;;;;;14.26;84.10;99495.53;5031641;27;103960;-69
2022/10/27 05:35:13;;;;;;;9.20;7.15;;;;;;;14.29;84.50;99493.47;5037411;27;103400;-69
2022/10/27 05:37:46;;;;;;;11.13;7.85;;;;;;;14.25;84.62;99485.84;5035470;27;103187;-69
2022/10/27 05:40:15;;;;;;;10.48;7.82;;;;;;;14.01;86.55;99477.06;5036592;27;102732;-69
2022/10/27 05:42:51;;;;;;;11.90;7.63;;;;;;;13.97;87.30;99476.41;5039547;27;102647;-70
2022/10/27 05:45:21;;;;;;;12.02;8.40;;;;;;;13.80;88.56;99480.31;5037317;27;103827;-69
2022/10/27 05:47:49;;;;;;;12.13;7.80;;;;;;;14.01;88.09;99477.06;5039611;27;103201;-69
2022/10/27 05:50:16;;;;;;;12.10;8.53;;;;;;;13.84;88.64;99478.25;5044760;27;102879;-70
2022/10/27 05:52:46;;;;;;;10.53;8.20;;;;;;;13.98;88.09;99474.63;5041708;27;103622;-70
2022/10/27 05:55:14;;;;;;;10.77;8.20;;;;;;;14.00;88.27;99481.50;5036574;27;103318;-70
2022/10/27 05:57:42;;;;;;;12.73;8.98;;;;;;;13.89;89.64;99460.22;5034234;27;103723;-70
2022/10/27 06:00:12;;;;;;;13.75;8.93;;;;;;;13.88;89.90;99467.31;5041571;27;102812;-70
2022/10/27 06:02:42;;;;;;;13.93;9.40;;;;;;;13.65;90.46;99469.94;5043002;27;102910;-70
2022/10/27 06:05:10;;;;;;;12.50;9.33;;;;;;;13.27;92.09;99473.56;5036287;27;103887;-70
2022/10/27 06:07:40;;;;;;;14.02;9.30;;;;;;;13.50;90.84;99477.22;5035596;27;103019;-70
2022/10/27 06:10:08;;;;;;;11.77;8.52;;;;;;;13.57;90.25;99472.31;5034307;27;102710;-70
2022/10/27 06:12:36;;;;;;;11.20;8.68;;;;;;;13.62;89.91;99480.78;5035982;27;102887;-70
2022/10/27 06:15:04;;;;;;;13.23;9.13;;;;;;;13.63;89.81;99482.50;5038817;27;103396;-69
2022/10/27 06:17:33;;;;;;;10.38;8.00;;;;;;;13.74;88.93;99482.56;5029568;27;103321;-69
2022/10/27 06:20:01;;;;;;;11.82;8.52;;;;;;;13.66;89.61;99487.59;5039312;27;102978;-69
2022/10/27 06:22:29;;;;;;;11.90;8.83;;;;;;;13.35;92.25;99487.16;5039798;27;102648;-70
2022/10/27 06:24:56;;;;;;;10.45;9.05;;;;;;;13.70;89.80;99486.38;5039120;27;104284;-70
2022/10/27 06:27:24;;;;;;;12.32;9.43;;;;;;;13.61;89.55;99492.38;5036808;27;103346;-70
2022/10/27 06:29:54;;;;;;;10.57;7.97;;;;;;;13.73;89.44;99500.31;5035659;27;103491;-70
2022/10/27 06:32:22;;;;;;;9.40;7.83;;;;;;;14.06;88.33;99486.38;5034728;27;103961;-70
2022/10/27 06:34:51;;;;;;;9.77;7.70;;;;;;;13.88;89.03;99498.34;5034038;27;103419;-70
2022/10/27 06:37:19;;;;;;;13.63;8.52;;;;;;;13.84;88.46;99507.47;5035588;27;104334;-69
2022/10/27 06:39:47;;;;;;;12.05;8.23;;;;;;;13.82;88.96;99504.94;5038734;27;103419;-70
2022/10/27 06:42:14;;;;;;;9.20;6.95;;;;;;;14.29;87.90;99511.22;5039966;27;104171;-70
2022/10/27 06:44:51;;;;;;;10.30;7.60;;;;;;;14.59;85.89;99521.41;5040110;27;104190;-70
2022/10/27 06:47:19;;;;;;;7.15;6.43;;;;;;;14.85;84.97;99520.28;5031335;27;103354;-70
2022/10/27 06:49:46;;;;;;;7.85;6.07;;;;;;;15.08;84.19;99514.84;5034115;27;102939;-70
2022/10/27 06:52:16;;;;;;;9.93;7.00;;;;;;;15.11;83.67;99519.09;5035202;27;103766;-70
2022/10/27 06:54:44;;;;;;;8.32;6.93;;;;;;;15.26;83.19;99517.91;5051951;27;104381;-70
2022/10/27 06:57:12;;;;;;;7.63;6.73;;;;;;;15.34;82.60;99515.47;5041238;27;103106;-69
2022/10/27 06:59:40;;;;;;;8.55;6.95;;;;;;;15.60;81.18;99516.94;5053248;27;102847;-70
2022/10/27 07:02:11;;;;;;;9.95;7.43;;;;;;;15.31;79.94;99521.03;5034780;27;102589;-70
2022/10/27 07:04:39;;;;;;;11.93;8.20;;;;;;;14.36;84.75;99523.97;5034897;27;103684;-69
2022/10/27 07:07:07;;;;;;;6.55;5.90;;;;;;;15.54;83.90;99517.44;5035770;27;103210;-70
2022/10/27 07:09:36;;;;;;;7.70;6.82;;;;;;;15.90;81.16;99518.94;5029707;27;102623;-70
2022/10/27 07:12:04;;;;;;;9.15;6.75;;;;;;;16.16;79.81;99514.16;5033546;27;104315;-70
2022/10/27 07:14:31;;;;;;;12.50;7.70;;;;;;;15.89;80.41;99521.72;5039245;27;104358;-70
2022/10/27 07:16:59;;;;;;;9.10;7.05;;;;;;;15.76;82.38;99521.03;5036443;27;104275;-70
2022/10/27 07:19:27;;;;;;;10.15;7.60;;;;;;;15.76;80.98;99513.88;5038200;27;102796;-70
2022/10/27 07:21:55;;;;;;;9.17;7.10;;;;;;;16.15;79.49;99521.31;5039918;27;103125;-71
2022/10/27 07:24:22;;;;;;;9.57;7.22;;;;;;;16.31;79.17;99523.53;5039549;27;103666;-70
2022/10/27 07:26:51;;;;;;;8.40;6.57;;;;;;;16.89;77.43;99522.22;5036785;27;103232;-69
2022/10/27 07:29:19;;;;;;;12.13;6.65;;;;;;;16.96;76.33;99526.03;5034424;27;102587;-69
2022/10/27 07:31:47;;;;;;;8.65;6.55;;;;;;;17.21;75.32;99527.44;5036278;27;103822;-69
2022/10/27 07:34:15;;;;;;;8.43;6.20;;;;;;;17.22;76.17;99515.78;5034355;27;103240;-69
2022/10/27 07:36:43;;;;;;;11.18;7.03;;;;;;;17.45;74.39;99522.66;5035648;27;103201;-69
2022/10/27 07:39:11;;;;;;;8.68;7.05;;;;;;;17.91;73.03;99522.94;5037412;27;103389;-69
2022/10/27 07:41:39;;;;;;;9.67;6.47;;;;;;;18.08;72.68;99525.97;5053032;27;103970;-69
2022/10/27 07:44:08;;;;;;;8.65;6.43;;;;;;;18.01;72.55;99524.81;5031214;27;104083;-69
2022/10/27 07:46:36;;;;;;;8.47;6.70;;;;;;;18.20;70.97;99524.81;5039392;27;104384;-69
2022/10/27 07:49:04;;;;;;;7.50;6.30;;;;;;;18.13;72.48;99521.88;5033821;27;104123;-69
2022/10/27 07:51:32;;;;;;;10.82;6.53;;;;;;;17.80;73.80;99533.75;5036473;27;104288;-69
2022/10/27 07:53:59;;;;;;;8.90;6.30;;;;;;;17.98;72.17;99527.75;5035902;27;104410;-69
2022/10/27 07:56:27;;;;;;;6.63;5.93;;;;;;;17.89;73.35;99527.59;5051133;27;103725;-69
2022/10/27 07:58:55;;;;;;;6.80;5.35;;;;;;;18.45;71.95;99525.13;5034868;27;102940;-69
2022/10/27 08:01:24;;;;;;;10.20;5.57;;;;;;;18.57;70.98;99539.25;5036863;27;102771;-69
2022/10/27 08:03:52;;;;;;;9.93;6.43;;;;;;;17.88;73.22;99546.47;5034766;27;103320;-69
2022/10/27 08:06:20;;;;;;;8.18;6.05;;;;;;;18.03;71.92;99549.56;5039775;27;103455;-69
2022/10/27 08:08:48;;;;;;;8.05;6.28;;;;;;;18.33;70.44;99546.81;5030962;27;102598;-69
2022/10/27 08:11:16;;;;;;;6.72;5.65;;;;;;;18.45;71.45;99551.03;5034358;27;103228;-69
2022/10/27 08:13:43;;;;;;;6.97;5.60;;;;;;;18.67;71.08;99556.13;5037629;27;103299;-69
2022/10/27 08:16:11;;;;;;;10.07;5.35;;;;;;;19.54;68.75;99548.81;5034398;27;103196;-69
2022/10/27 08:18:40;;;;;;;9.10;5.45;;;;;;;19.73;67.93;99556.78;5030034;27;102617;-69
2022/10/27 08:21:08;;;;;;;10.70;6.33;;;;;;;19.54;66.86;99548.81;5034665;27;104299;-69
2022/10/27 08:23:37;;;;;;;8.27;5.82;;;;;;;19.41;68.11;99551.81;5027700;27;104583;-69
2022/10/27 08:26:07;;;;;;;9.73;5.82;;;;;;;19.47;68.69;99550.41;5031650;27;103199;-69
2022/10/27 08:28:34;;;;;;;8.53;5.30;;;;;;;20.08;67.16;99546.13;5038231;27;103696;-69
2022/10/27 08:31:02;;;;;;;6.80;5.47;;;;;;;19.94;67.07;99554.69;5029197;27;103714;-69
2022/10/27 08:33:30;;;;;;;8.32;5.55;;;;;;;20.31;65.82;99551.09;5038466;27;103866;-69
2022/10/27 08:36:00;;;;;;;9.77;5.72;;;;;;;20.17;66.62;99549.75;5039490;27;103256;-69
2022/10/27 08:38:31;;;;;;;9.23;5.40;;;;;;;20.56;64.99;99555.72;5033800;27;103087;-69
2022/10/27 08:41:14;;;;;;;8.63;5.65;;;;;;;20.02;65.60;99540.53;5036895;27;104315;-69
2022/10/27 08:44:00;;;;;;;8.63;5.65;;;;;;;19.81;67.92;99548.00;5036054;27;104448;-69
2022/10/27 08:46:35;;;;;;;10.57;6.13;;;;;;;19.68;67.22;99540.28;5035524;27;103185;-69
2022/10/27 08:49:06;;;;;;;7.70;5.63;;;;;;;19.55;67.99;99534.41;5034813;27;102691;-69
2022/10/27 08:51:35;;;;;;;7.40;5.00;;;;;;;19.35;68.92;99530.94;5031956;27;103537;-69
2022/10/27 08:54:06;;;;;;;9.87;5.77;;;;;;;19.32;68.61;99535.72;5037141;27;103342;-69
2022/10/27 08:56:39;;;;;;;8.77;5.60;;;;;;;19.53;68.29;99534.59;5032486;27;103291;-69
2022/10/27 08:59:14;;;;;;;7.33;5.90;;;;;;;19.90;66.85;99539.88;5032071;27;103167;-69
2022/10/27 09:01:51;;;;;;;11.03;6.10;;;;;;;19.89;67.48;99538.22;5036471;27;103188;-69
2022/10/27 09:04:36;;;;;;;8.45;5.43;;;;;;;20.15;67.00;99539.16;5035366;27;102961;-69
2022/10/27 09:07:18;;;;;;;9.18;5.88;;;;;;;20.24;67.34;99538.28;5034267;27;103203;-69
2022/10/27 09:09:53;;;;;;;12.60;5.65;;;;;;;20.38;65.45;99536.09;5033516;27;102735;-68
2022/10/27 09:12:42;;;;;;;8.18;5.38;;;;;;;20.39;65.39;99545.81;5029721;27;102737;-69
2022/10/27 09:15:23;;;;;;;7.93;5.57;;;;;;;20.85;65.55;99539.38;5032885;27;104725;-69
2022/10/27 09:17:58;;;;;;;9.23;5.90;;;;;;;20.59;65.14;99537.47;5029525;27;103262;-69
2022/10/27 09:20:32;;;;;;;7.53;5.88;;;;;;;20.50;65.40;99530.34;5036151;27;103051;-69
2022/10/27 09:23:05;;;;;;;8.23;5.47;;;;;;;20.79;65.05;99530.94;5051274;27;102883;-69
2022/10/27 09:25:40;;;;;;;6.18;4.97;;;;;;;21.41;62.80;99530.88;5030939;27;104065;-69
2022/10/27 09:28:17;;;;;;;7.53;5.57;;;;;;;21.21;62.37;99538.31;5029084;27;103150;-69
2022/10/27 09:30:47;;;;;;;7.40;5.60;;;;;;;21.56;61.95;99529.28;5034841;27;103255;-69
2022/10/27 09:33:19;;;;;;;9.57;5.55;;;;;;;21.12;63.48;99532.03;5036816;27;102729;-69
2022/10/27 09:35:49;;;;;;;12.40;5.80;;;;;;;20.93;63.91;99537.59;5055428;27;104389;-69
2022/10/27 09:38:22;;;;;;;10.70;5.90;;;;;;;21.16;64.11;99533.44;5038643;27;103214;-69
2022/10/27 09:40:51;;;;;;;7.70;5.33;;;;;;;21.97;61.99;99530.31;5030468;27;103438;-69
2022/10/27 09:43:21;;;;;;;9.05;5.28;;;;;;;21.73;61.47;99525.66;5035709;27;103901;-69
2022/10/27 09:45:54;;;;;;;9.85;5.50;;;;;;;21.45;62.43;99526.84;5035238;27;103427;-69
2022/10/27 09:48:26;;;;;;;7.90;5.60;;;;;;;21.85;62.07;99529.75;5030155;27;103474;-69
2022/10/27 09:51:00;;;;;;;10.43;6.15;;;;;;;21.39;63.75;99522.97;5027727;27;102724;-69
2022/10/27 09:53:42;;;;;;;8.43;5.90;;;;;;;21.57;64.54;99525.56;5031233;27;104381;-69
2022/10/27 09:56:14;;;;;;;8.98;5.68;;;;;;;21.83;63.56;99515.63;5052378;27;104399;-69
2022/10/27 09:58:56;;;;;;;11.53;5.50;;;;;;;22.07;62.60;99515.72;5034960;27;103629;-69
2022/10/27 10:01:25;;;;;;;10.80;5.82;;;;;;;21.57;62.36;99515.69;5036804;27;102877;-69
2022/10/27 10:04:04;;;;;;;11.05;5.22;;;;;;;21.90;61.81;99522.06;5036509;27;102848;-69
2022/10/27 10:06:40;;;;;;;10.68;5.65;;;;;;;21.83;61.76;99521.00;5029557;27;103219;-69
2022/10/27 10:09:23;;;;;;;9.88;5.03;;;;;;;22.37;60.67;99520.47;5034880;27;103292;-69
2022/10/27 10:11:51;;;;;;;12.73;5.63;;;;;;;22.63;60.22;99511.41;5030875;27;102831;-69
2022/10/27 10:14:22;;;;;;;10.50;5.60;;;;;;;22.76;59.51;99514.50;5029737;27;103867;-69
2022/10/27 10:16:54;;;;;;;9.57;5.43;;;;;;;22.82;59.37;99514.66;5033847;27;103057;-69
2022/10/27 10:19:23;;;;;;;6.20;4.40;;;;;;;22.84;58.72;99512.66;5039673;27;104515;-69
2022/10/27 10:21:54;;;;;;;11.02;5.43;;;;;;;22.78;59.81;99513.31;5035921;27;102938;-69
2022/10/27 10:24:28;;;;;;;9.90;5.22;;;;;;;23.01;59.26;99503.53;5036848;27;104176;-69
2022/10/27 10:26:57;;;;;;;7.88;4.63;;;;;;;23.11;58.66;99506.03;5037058;27;103884;-69
2022/10/27 10:29:29;;;;;;;8.73;4.90;;;;;;;23.35;57.66;99505.16;5031987;27;103494;-69
2022/10/27 10:32:09;;;;;;;8.27;4.40;;;;;;;23.24;57.77;99492.91;5033872;27;102561;-69
2022/10/27 10:34:37;;;;;;;7.07;4.65;;;;;;;23.33;58.12;99493.69;5040240;27;103519;-69
2022/10/27 10:37:29;;;;;;;11.93;4.60;;;;;;;23.29;57.84;99489.66;5030271;27;103943;-69
2022/10/27 10:40:30;;;;;;;10.13;4.35;;;;;;;23.33;57.83;99491.84;5034949;27;103271;-69
2022/10/27 10:43:04;;;;;;;9.25;4.32;;;;;;;23.70;56.80;99488.53;4997602;27;102954;-69
2022/10/27 10:45:35;;;;;;;8.48;4.00;;;;;;;23.61;55.94;99485.03;5037862;27;103535;-69
2022/10/27 10:48:08;;;;;;;7.43;3.72;;;;;;;23.93;55.33;99488.59;5036783;27;103292;-69
2022/10/27 10:50:46;;;;;;;10.55;4.10;;;;;;;23.85;55.26;99480.53;5037696;27;103194;-69
2022/10/27 10:53:23;;;;;;;6.90;3.40;;;;;;;24.35;54.12;99478.25;5033451;27;103047;-69
2022/10/27 10:56:01;;;;;;;7.80;3.78;;;;;;;24.57;54.52;99469.28;5038344;27;102999;-69
2022/10/27 10:58:32;;;;;;;9.63;3.50;;;;;;;24.56;54.08;99473.00;5031281;27;104471;-69
2022/10/27 11:01:02;;;;;;;9.38;3.70;;;;;;;24.58;54.49;99470.97;5032956;27;103217;-69
2022/10/27 11:03:33;;;;;;;8.88;3.92;;;;;;;24.26;55.12;99467.66;5033345;27;103016;-69
2022/10/27 11:06:03;;;;;;;9.52;3.45;;;;;;;24.47;53.95;99471.41;5033776;27;104475;-68
2022/10/27 11:08:37;;;;;;;7.87;3.80;;;;;;;24.78;53.23;99466.75;5037138;27;103120;-69
2022/10/27 11:11:18;;;;;;;9.07;3.83;;;;;;;24.00;55.05;99468.00;5033652;27;103352;-67
2022/10/27 11:13:53;;;;;;;9.88;4.22;;;;;;;24.33;54.54;99461.38;5036449;27;102967;-68
2022/10/27 11:16:21;;;;;;;8.57;3.60;;;;;;;24.81;53.22;99457.47;5035944;27;103973;-67
2022/10/27 11:19:00;;;;;;;7.40;3.40;;;;;;;24.87;53.40;99455.91;5033158;27;103692;-68
2022/10/27 11:21:38;;;;;;;9.70;3.40;;;;;;;25.50;51.76;99463.50;5037531;27;103222;-67
2022/10/27 11:24:13;;;;;;;7.82;3.58;;;;;;;24.86;52.76;99455.06;5029161;27;102591;-68
2022/10/27 11:26:55;;;;;;;7.40;3.70;;;;;;;25.01;52.55;99453.19;5029743;27;102980;-68
2022/10/27 11:29:32;;;;;;;5.15;3.50;;;;;;;25.72;50.59;99451.72;5036890;27;103273;-68
2022/10/27 11:32:12;;;;;;;9.57;3.43;;;;;;;25.53;51.22;99442.34;5034465;27;103209;-68
2022/10/27 11:34:50;;;;;;;8.75;3.47;;;;;;;25.12;51.92;99438.41;5034055;27;102916;-68
2022/10/27 11:37:24;;;;;;;8.32;3.40;;;;;;;25.21;50.85;99439.97;5039849;27;103020;-68
2022/10/27 11:39:58;;;;;;;10.00;3.17;;;;;;;26.03;49.46;99432.50;5032109;27;103695;-68